sensor_id;sensor_type;location;lat;lon;timestamp;temperature;humidity
50738;DHT22;36703;48.154;17.126;2023-08-06T18:35:12;21.60;88.80
50738;DHT22;36703;48.154;17.126;2023-08-06T18:39:14;21.50;79.90
50738;DHT22;36703;48.154;17.126;2023-08-06T18:43:15;21.50;80.20
50738;DHT22;36703;48.154;17.126;2023-08-06T18:47:17;21.40;80.10
50738;DHT22;36703;48.154;17.126;2023-08-06T18:51:19;21.40;80.20
50738;DHT22;36703;48.154;17.126;2023-08-06T18:55:21;21.30;80.00
50738;DHT22;36703;48.154;17.126;2023-08-06T18:59:22;21.40;80.30
50738;DHT22;36703;48.154;17.126;2023-08-06T19:03:24;21.40;79.40
50738;DHT22;36703;48.154;17.126;2023-08-06T19:07:26;21.30;79.10
50738;DHT22;36703;48.154;17.126;2023-08-06T19:11:28;21.30;79.70
50738;DHT22;36703;48.154;17.126;2023-08-06T19:15:29;21.20;78.70
50738;DHT22;36703;48.154;17.126;2023-08-06T19:19:31;21.20;78.70
50738;DHT22;36703;48.154;17.126;2023-08-06T19:23:32;21.30;78.90
50738;DHT22;36703;48.154;17.126;2023-08-06T19:27:34;21.30;77.90
50738;DHT22;36703;48.154;17.126;2023-08-06T19:31:36;21.20;77.50
50738;DHT22;36703;48.154;17.126;2023-08-06T19:35:49;21.20;77.60
50738;DHT22;36703;48.154;17.126;2023-08-06T19:39:56;21.20;77.10
50738;DHT22;36703;48.154;17.126;2023-08-06T19:43:58;21.10;76.60
50738;DHT22;36703;48.154;17.126;2023-08-06T19:48:00;21.10;76.90
50738;DHT22;36703;48.154;17.126;2023-08-06T19:52:02;21.10;76.60
50738;DHT22;36703;48.154;17.126;2023-08-06T19:56:06;21.10;76.00
50738;DHT22;36703;48.154;17.126;2023-08-06T20:00:08;21.00;76.10
50738;DHT22;36703;48.154;17.126;2023-08-06T20:04:19;21.00;75.40
50738;DHT22;36703;48.154;17.126;2023-08-06T20:08:21;20.90;76.00
50738;DHT22;36703;48.154;17.126;2023-08-06T20:12:22;20.90;75.80
50738;DHT22;36703;48.154;17.126;2023-08-06T20:16:24;21.00;75.10
50738;DHT22;36703;48.154;17.126;2023-08-06T20:20:26;20.80;74.90
50738;DHT22;36703;48.154;17.126;2023-08-06T20:24:27;20.80;74.90
50738;DHT22;36703;48.154;17.126;2023-08-06T20:28:29;20.80;74.20
50738;DHT22;36703;48.154;17.126;2023-08-06T20:32:32;20.70;74.10
50738;DHT22;36703;48.154;17.126;2023-08-06T20:36:33;20.60;74.20
50738;DHT22;36703;48.154;17.126;2023-08-06T20:40:41;20.60;72.90
50738;DHT22;36703;48.154;17.126;2023-08-06T20:44:43;20.50;73.50
50738;DHT22;36703;48.154;17.126;2023-08-06T20:48:46;20.50;73.70
50738;DHT22;36703;48.154;17.126;2023-08-06T20:52:48;20.50;73.80
50738;DHT22;36703;48.154;17.126;2023-08-06T20:56:50;20.60;73.80
50738;DHT22;36703;48.154;17.126;2023-08-06T21:00:53;20.60;73.50
50738;DHT22;36703;48.154;17.126;2023-08-06T21:04:59;20.60;73.20
50738;DHT22;36703;48.154;17.126;2023-08-06T21:09:01;20.60;73.60
50738;DHT22;36703;48.154;17.126;2023-08-06T21:13:03;20.50;73.30
50738;DHT22;36703;48.154;17.126;2023-08-06T21:17:04;20.60;74.00
50738;DHT22;36703;48.154;17.126;2023-08-06T21:21:06;20.60;73.20
50738;DHT22;36703;48.154;17.126;2023-08-06T21:25:08;20.50;73.30
50738;DHT22;36703;48.154;17.126;2023-08-06T21:29:09;20.50;72.80
50738;DHT22;36703;48.154;17.126;2023-08-06T21:33:11;20.50;73.10
50738;DHT22;36703;48.154;17.126;2023-08-06T21:37:12;20.50;73.10
50738;DHT22;36703;48.154;17.126;2023-08-06T21:41:15;20.40;73.10
50738;DHT22;36703;48.154;17.126;2023-08-06T21:45:17;20.40;72.40
50738;DHT22;36703;48.154;17.126;2023-08-06T21:49:19;20.40;72.80
50738;DHT22;36703;48.154;17.126;2023-08-06T21:53:21;20.40;72.80
50738;DHT22;36703;48.154;17.126;2023-08-06T21:57:22;20.40;72.90
50738;DHT22;36703;48.154;17.126;2023-08-06T22:01:24;20.30;73.20
50738;DHT22;36703;48.154;17.126;2023-08-06T22:05:26;20.30;73.20
50738;DHT22;36703;48.154;17.126;2023-08-06T22:09:28;20.30;73.50
50738;DHT22;36703;48.154;17.126;2023-08-06T22:13:29;20.30;73.50
50738;DHT22;36703;48.154;17.126;2023-08-06T22:17:31;20.40;73.60
50738;DHT22;36703;48.154;17.126;2023-08-06T22:21:34;20.40;73.70
50738;DHT22;36703;48.154;17.126;2023-08-06T22:25:35;20.40;73.70
50738;DHT22;36703;48.154;17.126;2023-08-06T22:29:37;20.30;73.70
50738;DHT22;36703;48.154;17.126;2023-08-06T22:33:38;20.20;74.10
50738;DHT22;36703;48.154;17.126;2023-08-06T22:37:40;20.20;74.10
50738;DHT22;36703;48.154;17.126;2023-08-06T22:41:42;20.20;73.60
50738;DHT22;36703;48.154;17.126;2023-08-06T22:45:44;20.20;73.80
50738;DHT22;36703;48.154;17.126;2023-08-06T22:49:46;20.10;73.90
50738;DHT22;36703;48.154;17.126;2023-08-06T22:53:48;20.10;74.00
50738;DHT22;36703;48.154;17.126;2023-08-06T22:57:49;20.20;74.00
50738;DHT22;36703;48.154;17.126;2023-08-06T23:01:51;20.20;74.00
50738;DHT22;36703;48.154;17.126;2023-08-06T23:05:52;20.20;74.30
50738;DHT22;36703;48.154;17.126;2023-08-06T23:09:54;20.10;74.30
50738;DHT22;36703;48.154;17.126;2023-08-06T23:13:56;20.10;74.80
50738;DHT22;36703;48.154;17.126;2023-08-06T23:17:57;20.10;74.90
50738;DHT22;36703;48.154;17.126;2023-08-06T23:21:59;20.00;75.80
50738;DHT22;36703;48.154;17.126;2023-08-06T23:26:01;20.00;75.40
50738;DHT22;36703;48.154;17.126;2023-08-06T23:30:05;19.90;75.60
50738;DHT22;36703;48.154;17.126;2023-08-06T23:34:07;19.90;75.70
50738;DHT22;36703;48.154;17.126;2023-08-06T23:38:10;19.90;76.00
50738;DHT22;36703;48.154;17.126;2023-08-06T23:42:11;19.90;76.00
50738;DHT22;36703;48.154;17.126;2023-08-06T23:46:13;19.90;76.10
50738;DHT22;36703;48.154;17.126;2023-08-06T23:50:15;19.80;76.40
50738;DHT22;36703;48.154;17.126;2023-08-06T23:54:17;19.80;76.50
50738;DHT22;36703;48.154;17.126;2023-08-06T23:58:18;19.80;76.80
